Time;durP1;ratioP1;P1;durP2;ratioP2;P2;SDS_P1;SDS_P2;PMS_P1;PMS_P2;Temp;Humidity;BMP_temperature;BMP_pressure;BME280_temperature;BME280_humidity;BME280_pressure;Samples;Min_cycle;Max_cycle;Signal;HPM_P1;HPM_P2
2022/05/06 00:01:00;;;;;;;34.45;19.67;;;;;;;11.34;87.03;102408.47;4805682;29;20034;-71
2022/05/06 00:03:26;;;;;;;39.15;19.45;;;;;;;11.28;87.50;102398.47;4821460;29;20485;-71
2022/05/06 00:05:51;;;;;;;29.42;18.92;;;;;;;11.22;88.01;102404.47;4821886;29;20038;-71
2022/05/06 00:08:16;;;;;;;36.20;18.88;;;;;;;11.17;88.45;102399.59;4821714;29;20039;-72
2022/05/06 00:10:42;;;;;;;35.05;21.42;;;;;;;11.19;88.45;102400.28;4821714;29;20049;-72
2022/05/06 00:13:07;;;;;;;32.17;19.08;;;;;;;11.16;88.92;102396.09;4821755;29;20046;-71
2022/05/06 00:15:35;;;;;;;32.17;18.90;;;;;;;11.19;89.03;102401.13;4821179;29;20030;-71
2022/05/06 00:18:00;;;;;;;35.63;19.70;;;;;;;11.20;88.85;102412.63;4821509;29;20046;-71
2022/05/06 00:20:26;;;;;;;33.42;17.73;;;;;;;11.16;88.52;102405.91;4805426;29;20406;-71
2022/05/06 00:22:51;;;;;;;31.75;18.88;;;;;;;11.12;88.86;102415.28;4821709;29;20037;-71
2022/05/06 00:25:16;;;;;;;31.65;18.05;;;;;;;11.10;88.99;102406.56;4821729;29;20038;-72
2022/05/06 00:27:42;;;;;;;36.92;21.05;;;;;;;11.08;89.37;102408.56;4821595;29;20436;-72
2022/05/06 00:30:08;;;;;;;36.08;21.05;;;;;;;11.04;88.98;102402.72;4821312;29;20550;-72
2022/05/06 00:32:34;;;;;;;35.55;18.83;;;;;;;11.00;89.24;102406.69;4821522;29;20099;-72
2022/05/06 00:34:59;;;;;;;35.25;19.05;;;;;;;10.97;89.49;102410.53;4821290;29;20069;-72
2022/05/06 00:37:24;;;;;;;36.83;19.77;;;;;;;10.91;89.05;102405.00;4821406;29;20034;-72
2022/05/06 00:39:50;;;;;;;29.60;17.52;;;;;;;10.86;87.86;102405.50;4821470;29;20034;-72
2022/05/06 00:42:16;;;;;;;32.33;17.25;;;;;;;10.80;88.13;102414.16;4821491;29;20554;-72
2022/05/06 00:44:41;;;;;;;35.95;19.83;;;;;;;10.74;88.69;102412.09;4821205;29;20066;-72
2022/05/06 00:47:08;;;;;;;35.65;21.17;;;;;;;10.68;89.53;102408.22;4820855;29;20589;-72
2022/05/06 00:49:35;;;;;;;31.40;19.45;;;;;;;10.62;89.14;102406.22;4804639;29;20042;-72
2022/05/06 00:52:03;;;;;;;32.75;19.33;;;;;;;10.58;89.24;102402.16;4821107;29;20053;-72
2022/05/06 00:54:31;;;;;;;32.95;17.30;;;;;;;10.52;89.69;102403.66;4821221;29;20946;-71
2022/05/06 00:56:57;;;;;;;36.97;21.52;;;;;;;10.52;90.50;102402.81;4819695;29;20074;-71
2022/05/06 00:59:22;;;;;;;35.42;20.98;;;;;;;10.51;90.87;102410.00;4820733;29;20042;-72
2022/05/06 01:01:48;;;;;;;32.88;21.27;;;;;;;10.47;90.69;102411.28;4820790;29;20030;-72
2022/05/06 01:04:17;;;;;;;39.83;22.17;;;;;;;10.38;91.62;102400.75;4820979;29;20030;-71
2022/05/06 01:06:44;;;;;;;59.28;21.83;;;;;;;10.37;91.31;102405.22;4820690;29;20030;-72
2022/05/06 01:09:17;;;;;;;39.05;21.45;;;;;;;10.32;91.74;102404.84;4820772;29;20072;-72
2022/05/06 01:11:43;;;;;;;32.63;17.02;;;;;;;10.27;91.00;102402.66;4821013;29;20444;-72
2022/05/06 01:14:09;;;;;;;34.40;21.67;;;;;;;10.26;90.76;102411.63;4820759;29;20030;-72
2022/05/06 01:16:36;;;;;;;33.78;19.40;;;;;;;10.22;90.63;102410.28;4820569;29;20046;-72
2022/05/06 01:19:03;;;;;;;35.97;20.83;;;;;;;10.20;91.21;102412.25;4820622;29;20038;-71
2022/05/06 01:21:34;;;;;;;34.80;22.20;;;;;;;10.18;91.77;102416.88;4820791;29;20049;-72
2022/05/06 01:24:00;;;;;;;37.40;21.80;;;;;;;10.18;92.35;102410.72;4820868;29;20923;-71
2022/05/06 01:27:03;;;;;;;35.85;21.00;;;;;;;10.20;93.13;102419.41;4820766;29;20044;-72
2022/05/06 01:29:31;;;;;;;35.67;22.73;;;;;;;10.22;92.73;102414.78;4820664;29;20042;-71
2022/05/06 01:31:56;;;;;;;34.80;20.23;;;;;;;10.22;92.57;102420.94;4820608;29;20046;-71
2022/05/06 01:34:28;;;;;;;41.67;23.10;;;;;;;10.23;93.12;102416.44;4820790;29;20058;-72
2022/05/06 01:36:58;;;;;;;37.63;22.70;;;;;;;10.20;93.32;102419.41;4820855;29;20038;-72
2022/05/06 01:39:30;;;;;;;33.45;24.02;;;;;;;10.18;93.61;102416.88;4820833;29;20027;-72
2022/05/06 01:41:59;;;;;;;38.92;24.38;;;;;;;10.13;93.17;102416.53;4820634;29;20114;-72
2022/05/06 01:44:27;;;;;;;37.53;25.35;;;;;;;10.09;93.53;102413.34;4820706;29;20041;-72
2022/05/06 01:46:58;;;;;;;32.80;20.98;;;;;;;10.12;93.85;102419.34;4820478;29;20039;-72
2022/05/06 01:49:25;;;;;;;36.38;24.30;;;;;;;10.12;93.37;102416.69;4820407;29;20046;-72
2022/05/06 01:51:53;;;;;;;36.05;23.13;;;;;;;10.09;93.41;102416.00;4820233;29;20034;-72
2022/05/06 01:54:18;;;;;;;38.97;25.02;;;;;;;10.08;93.24;102416.97;4820178;29;20038;-72
2022/05/06 01:56:46;;;;;;;41.45;24.63;;;;;;;10.12;93.45;102433.53;4820263;29;20077;-72
2022/05/06 01:59:12;;;;;;;38.97;24.02;;;;;;;10.12;93.39;102428.19;4820543;29;20037;-72
2022/05/06 02:01:37;;;;;;;37.75;23.80;;;;;;;10.12;93.47;102425.53;4820501;29;20034;-72
2022/05/06 02:06:46;;;;;;;41.30;25.58;;;;;;;10.12;93.25;102428.19;4820257;29;20133;-72
2022/05/06 02:09:12;;;;;;;41.10;25.63;;;;;;;10.14;93.42;102425.34;4820078;29;20125;-72
2022/05/06 02:11:37;;;;;;;43.22;28.15;;;;;;;10.14;93.59;102426.22;4820758;29;20077;-72
2022/05/06 02:14:03;;;;;;;40.70;25.23;;;;;;;10.09;93.72;102415.19;4821553;29;20490;-72
2022/05/06 02:16:29;;;;;;;40.65;24.38;;;;;;;10.17;93.68;102433.06;4819713;29;20065;-72
2022/05/06 02:18:55;;;;;;;36.58;23.58;;;;;;;10.16;93.54;102421.53;4819825;29;20041;-72
2022/05/06 02:21:20;;;;;;;40.65;23.92;;;;;;;10.13;93.54;102415.69;4820241;29;20051;-72
2022/05/06 02:23:46;;;;;;;36.40;22.20;;;;;;;10.14;93.37;102420.00;4823345;29;20581;-72
2022/05/06 02:26:11;;;;;;;37.50;25.25;;;;;;;10.12;93.36;102425.53;4823441;29;20035;-72
2022/05/06 02:28:36;;;;;;;38.30;22.42;;;;;;;10.10;93.34;102420.34;4823439;29;20038;-72
2022/05/06 02:33:46;;;;;;;37.72;23.70;;;;;;;10.03;93.55;102424.63;4823587;29;20045;-72
2022/05/06 02:36:11;;;;;;;41.45;24.35;;;;;;;10.02;93.72;102422.94;4823333;29;20471;-72
2022/05/06 02:38:37;;;;;;;33.35;22.98;;;;;;;10.00;93.57;102422.25;4823546;29;20390;-72
2022/05/06 02:41:03;;;;;;;35.35;22.65;;;;;;;9.98;93.71;102418.94;4822994;29;20046;-72
2022/05/06 02:43:28;;;;;;;39.83;22.90;;;;;;;9.97;93.69;102424.41;4823245;29;20035;-72
2022/05/06 02:45:53;;;;;;;33.63;20.17;;;;;;;9.93;93.57;102420.34;4823100;29;20074;-73
2022/05/06 02:48:19;;;;;;;34.15;20.38;;;;;;;9.91;93.95;102425.84;4822990;29;20063;-72
2022/05/06 02:50:44;;;;;;;35.95;21.42;;;;;;;9.87;94.15;102421.81;4822898;29;20048;-72
2022/05/06 02:53:10;;;;;;;36.65;19.08;;;;;;;9.77;94.36;102421.03;4822869;29;20340;-72
2022/05/06 02:55:36;;;;;;;33.38;19.50;;;;;;;9.70;94.67;102428.00;4822863;29;20137;-72
2022/05/06 02:58:02;;;;;;;41.50;20.20;;;;;;;9.59;95.13;102427.22;4823324;29;20110;-72
2022/05/06 03:00:28;;;;;;;33.00;18.25;;;;;;;9.54;95.30;102428.66;4791964;29;20149;-72
2022/05/06 03:02:56;;;;;;;34.78;18.73;;;;;;;9.51;95.77;102435.13;4822921;29;20054;-72
2022/05/06 03:05:22;;;;;;;34.75;19.45;;;;;;;9.50;96.11;102437.94;4822233;29;20027;-72
2022/05/06 03:07:48;;;;;;;33.00;19.83;;;;;;;9.51;96.15;102427.16;4822497;29;20030;-72
2022/05/06 03:10:13;;;;;;;32.80;17.02;;;;;;;9.50;96.36;102421.97;4822222;29;20045;-72
2022/05/06 03:12:43;;;;;;;34.17;19.17;;;;;;;9.54;96.64;102428.66;4822359;29;20383;-72
2022/05/06 03:15:09;;;;;;;34.53;18.08;;;;;;;9.54;96.56;102429.50;4822709;29;20061;-72
2022/05/06 03:17:34;;;;;;;36.53;21.65;;;;;;;9.55;96.63;102428.50;4822172;29;20030;-72
2022/05/06 03:20:01;;;;;;;35.33;19.73;;;;;;;9.56;97.11;102426.66;4822107;29;20038;-73
2022/05/06 03:22:28;;;;;;;35.78;19.95;;;;;;;9.55;97.26;102425.00;4822644;29;20061;-72
2022/05/06 03:24:53;;;;;;;45.80;20.10;;;;;;;9.53;97.41;102418.97;4823066;29;20128;-72
2022/05/06 03:30:04;;;;;;;40.88;20.17;;;;;;;9.53;97.75;102424.31;4823975;29;20038;-72
2022/05/06 03:32:31;;;;;;;43.42;21.98;;;;;;;9.46;98.04;102413.44;4822120;29;20134;-72
2022/05/06 03:34:57;;;;;;;41.42;21.35;;;;;;;9.51;98.44;102421.81;4806196;29;20030;-72
2022/05/06 03:37:22;;;;;;;36.75;19.30;;;;;;;9.48;98.60;102419.44;4822412;29;20162;-72
2022/05/06 03:39:48;;;;;;;48.25;22.13;;;;;;;9.48;98.77;102418.59;4822443;29;20036;-72
2022/05/06 03:42:13;;;;;;;36.35;21.20;;;;;;;9.48;98.98;102422.09;4822173;29;20954;-72
2022/05/06 03:44:39;;;;;;;44.67;18.95;;;;;;;9.44;99.45;102415.41;4822072;29;20165;-72
2022/05/06 03:47:04;;;;;;;39.35;20.08;;;;;;;9.49;99.13;102426.44;4820651;29;20030;-72
2022/05/06 03:49:30;;;;;;;40.13;20.80;;;;;;;9.48;99.27;102422.09;4822088;29;20114;-72
2022/05/06 03:51:55;;;;;;;34.05;17.42;;;;;;;9.48;99.25;102415.94;4822137;29;20030;-73
2022/05/06 03:54:20;;;;;;;44.08;16.38;;;;;;;9.49;99.33;102428.28;4821466;29;20501;-72
2022/05/06 03:56:46;;;;;;;39.17;17.30;;;;;;;9.39;99.50;102415.03;4821995;29;20054;-72
2022/05/06 03:59:11;;;;;;;34.92;18.05;;;;;;;9.44;99.59;102424.22;4821851;29;20068;-72
2022/05/06 04:01:37;;;;;;;40.42;20.05;;;;;;;9.46;99.72;102421.44;4805402;29;20502;-72
2022/05/06 04:04:02;;;;;;;33.00;17.20;;;;;;;9.49;99.84;102425.63;4822068;29;20042;-72
2022/05/06 04:06:28;;;;;;;39.58;19.60;;;;;;;9.52;100.00;102428.81;4821876;29;20493;-72
2022/05/06 04:08:54;;;;;;;35.83;20.08;;;;;;;9.53;99.87;102435.78;4821732;29;20113;-72
2022/05/06 04:11:20;;;;;;;35.70;18.88;;;;;;;9.50;99.85;102429.94;4821356;29;20035;-72
2022/05/06 04:13:46;;;;;;;39.97;17.90;;;;;;;9.48;99.96;102431.91;4821760;29;20030;-72
2022/05/06 04:16:12;;;;;;;36.45;16.83;;;;;;;9.51;100.00;102428.94;4821810;29;20100;-72
2022/05/06 04:18:38;;;;;;;39.10;19.65;;;;;;;9.51;100.00;102429.81;4821872;29;20050;-72
2022/05/06 04:23:47;;;;;;;38.05;16.80;;;;;;;9.54;100.00;102432.16;4821888;29;20401;-72
2022/05/06 04:26:13;;;;;;;33.45;16.60;;;;;;;9.55;100.00;102433.81;4821648;29;20030;-73
2022/05/06 04:28:39;;;;;;;34.70;17.20;;;;;;;9.56;100.00;102438.19;4821548;29;20050;-72
2022/05/06 04:31:05;;;;;;;31.85;16.05;;;;;;;9.55;100.00;102441.81;4820940;29;20041;-72
2022/05/06 04:33:31;;;;;;;35.47;19.75;;;;;;;9.56;100.00;102443.50;4821415;29;20038;-72
2022/05/06 04:35:59;;;;;;;34.47;17.92;;;;;;;9.56;100.00;102445.31;4821072;29;20455;-72
2022/05/06 04:38:26;;;;;;;40.42;18.75;;;;;;;9.55;100.00;102439.16;4821310;29;20023;-72
2022/05/06 04:40:54;;;;;;;29.13;16.63;;;;;;;9.57;100.00;102449.66;4821460;29;20069;-72
2022/05/06 04:43:20;;;;;;;38.97;19.52;;;;;;;9.57;100.00;102445.19;4821980;29;20107;-72
2022/05/06 04:45:47;;;;;;;33.88;16.27;;;;;;;9.55;100.00;102438.31;4821312;29;20558;-72
2022/05/06 04:48:12;;;;;;;43.88;17.65;;;;;;;9.64;100.00;102448.91;4821228;29;20049;-72
2022/05/06 04:50:39;;;;;;;39.38;19.08;;;;;;;9.68;100.00;102453.94;4821285;29;20030;-72
2022/05/06 04:53:09;;;;;;;37.40;20.33;;;;;;;9.69;99.98;102450.28;4821077;29;20049;-72
2022/05/06 04:55:36;;;;;;;33.08;15.23;;;;;;;9.72;100.00;102460.63;4820649;29;20525;-72
2022/05/06 04:58:02;;;;;;;40.50;18.80;;;;;;;9.65;100.00;102449.75;4821022;29;20051;-72
2022/05/06 05:00:28;;;;;;;35.90;16.23;;;;;;;9.71;100.00;102464.28;4821124;29;20478;-72
2022/05/06 05:02:54;;;;;;;35.17;16.52;;;;;;;9.76;100.00;102470.00;4821506;29;20044;-72
2022/05/06 05:05:20;;;;;;;33.63;17.08;;;;;;;9.77;100.00;102466.34;4820889;29;20089;-72
2022/05/06 05:07:45;;;;;;;33.25;16.83;;;;;;;9.78;100.00;102468.88;4820463;29;20069;-72
2022/05/06 05:10:10;;;;;;;37.80;17.70;;;;;;;9.81;100.00;102465.06;4821110;29;20475;-72
2022/05/06 05:12:36;;;;;;;33.85;18.48;;;;;;;9.79;100.00;102465.19;4820834;29;20069;-72
2022/05/06 05:15:03;;;;;;;37.22;16.40;;;;;;;9.86;100.00;102476.09;4820947;29;20241;-72
2022/05/06 05:17:28;;;;;;;34.85;18.90;;;;;;;9.92;100.00;102483.47;4821021;29;20034;-72
2022/05/06 05:19:54;;;;;;;46.72;19.27;;;;;;;9.95;100.00;102482.34;4820921;29;20407;-72
2022/05/06 05:22:19;;;;;;;39.00;19.17;;;;;;;9.96;100.00;102478.69;4820921;29;20117;-72
2022/05/06 05:24:45;;;;;;;36.47;16.75;;;;;;;9.94;100.00;102480.69;4820989;29;20074;-72
2022/05/06 05:27:13;;;;;;;36.78;17.90;;;;;;;9.92;100.00;102479.97;4820668;29;20465;-72
2022/05/06 05:29:38;;;;;;;34.83;15.65;;;;;;;9.88;100.00;102484.78;4821016;29;20494;-72
2022/05/06 05:32:04;;;;;;;33.00;17.50;;;;;;;9.88;100.00;102484.78;4820577;29;20042;-72
2022/05/06 05:34:30;;;;;;;36.17;17.08;;;;;;;9.89;100.00;102497.13;4820432;29;20403;-72
2022/05/06 05:36:55;;;;;;;41.47;18.35;;;;;;;9.87;100.00;102491.91;4820382;29;20031;-73
2022/05/06 05:39:20;;;;;;;30.95;13.77;;;;;;;9.89;100.00;102483.78;4820583;29;20049;-72
2022/05/06 05:41:46;;;;;;;35.50;18.70;;;;;;;9.93;100.00;102493.16;4820561;29;20050;-73
2022/05/06 05:49:39;;;;;;;39.80;17.52;;;;;;;10.05;100.00;102486.59;4820188;29;20052;-72
2022/05/06 05:52:05;;;;;;;38.17;18.35;;;;;;;10.06;100.00;102484.75;4804151;29;20109;-73
2022/05/06 05:54:30;;;;;;;36.85;15.73;;;;;;;10.12;100.00;102489.50;4820523;29;20054;-73
2022/05/06 05:56:55;;;;;;;41.65;18.05;;;;;;;10.17;99.99;102489.06;4822476;29;20054;-72
2022/05/06 05:59:22;;;;;;;35.25;17.95;;;;;;;10.19;100.00;102492.38;4823907;29;20529;-72
2022/05/06 06:01:48;;;;;;;38.38;18.13;;;;;;;10.27;100.00;102489.78;4823879;29;20050;-72
2022/05/06 06:04:13;;;;;;;40.63;21.13;;;;;;;10.29;100.00;102485.16;4823939;29;20034;-72
2022/05/06 06:06:38;;;;;;;36.72;18.70;;;;;;;10.33;100.00;102488.38;4823660;29;20038;-72
2022/05/06 06:09:03;;;;;;;36.95;17.88;;;;;;;10.38;100.00;102480.75;4823652;29;20142;-72
2022/05/06 06:11:29;;;;;;;35.95;19.45;;;;;;;10.44;100.00;102486.28;4823762;29;20038;-73
2022/05/06 06:13:54;;;;;;;37.83;17.70;;;;;;;10.53;100.00;102487.19;4823722;29;20490;-72
2022/05/06 06:16:20;;;;;;;36.40;17.48;;;;;;;10.58;100.00;102486.72;4823351;29;20062;-71
2022/05/06 06:18:47;;;;;;;37.63;17.83;;;;;;;10.64;100.00;102494.94;4807228;29;20048;-71
2022/05/06 06:21:12;;;;;;;42.85;17.80;;;;;;;10.64;99.64;102486.94;4823246;29;20042;-71
2022/05/06 06:23:37;;;;;;;32.58;16.60;;;;;;;10.66;99.57;102478.75;4823482;29;20042;-71
2022/05/06 06:26:03;;;;;;;34.65;15.90;;;;;;;10.71;98.95;102477.28;4807175;29;20409;-70
2022/05/06 06:28:28;;;;;;;28.70;14.52;;;;;;;10.81;98.57;102481.69;4823370;29;20121;-70
2022/05/06 06:30:53;;;;;;;33.65;17.67;;;;;;;10.79;97.75;102483.69;4823380;29;20042;-71
2022/05/06 06:33:19;;;;;;;38.30;16.95;;;;;;;10.79;97.29;102481.00;4823266;29;20023;-71
2022/05/06 06:35:44;;;;;;;38.42;16.73;;;;;;;10.83;97.02;102493.88;4823130;29;20034;-73
2022/05/06 06:38:09;;;;;;;32.92;16.25;;;;;;;10.89;97.87;102487.09;4807009;29;20026;-72
2022/05/06 06:40:35;;;;;;;33.20;15.15;;;;;;;10.95;96.95;102489.97;4823014;29;20073;-72
2022/05/06 06:43:04;;;;;;;32.13;14.82;;;;;;;10.98;96.57;102486.16;4823275;29;20499;-71
2022/05/06 06:45:30;;;;;;;29.40;14.95;;;;;;;11.04;95.98;102485.50;4823200;29;20034;-72
2022/05/06 06:47:58;;;;;;;29.08;12.65;;;;;;;11.09;96.11;102491.19;4822949;29;20035;-71
2022/05/06 06:50:26;;;;;;;26.90;14.65;;;;;;;11.11;94.75;102493.72;4823054;29;20026;-71
2022/05/06 06:52:52;;;;;;;29.63;12.75;;;;;;;11.17;94.77;102493.06;4822913;29;20056;-71
2022/05/06 06:55:18;;;;;;;25.13;14.63;;;;;;;11.19;94.39;102494.59;4822804;29;20491;-71
2022/05/06 06:57:44;;;;;;;29.25;14.25;;;;;;;11.20;94.30;102492.75;4823135;29;20056;-73
2022/05/06 07:00:11;;;;;;;26.92;14.38;;;;;;;11.25;94.12;102495.78;4822812;29;20034;-73
2022/05/06 07:02:37;;;;;;;27.73;14.20;;;;;;;11.32;94.70;102498.66;4822411;29;20031;-74
2022/05/06 07:05:03;;;;;;;29.58;14.05;;;;;;;11.37;93.71;102505.19;4822563;29;20034;-74
2022/05/06 07:12:57;;;;;;;26.20;13.30;;;;;;;11.39;92.85;102529.03;4823111;29;20178;-75
2022/05/06 07:15:23;;;;;;;28.55;13.38;;;;;;;11.35;92.28;102522.38;4822948;29;20046;-73
2022/05/06 07:17:48;;;;;;;30.13;13.25;;;;;;;11.31;92.95;102527.16;4823500;29;20034;-74
2022/05/06 07:20:14;;;;;;;25.45;11.93;;;;;;;11.33;92.99;102533.19;4822688;29;20473;-73
2022/05/06 07:22:40;;;;;;;29.48;15.43;;;;;;;11.34;92.86;102526.88;4822814;29;20068;-73
2022/05/06 07:25:06;;;;;;;26.40;13.88;;;;;;;11.41;93.51;102521.72;4822570;29;20046;-73
2022/05/06 07:27:34;;;;;;;30.15;16.15;;;;;;;11.45;93.63;102524.88;4822480;29;20035;-74
2022/05/06 07:29:59;;;;;;;27.15;13.77;;;;;;;11.52;93.20;102528.59;4806164;29;20038;-73
2022/05/06 07:32:25;;;;;;;26.52;14.13;;;;;;;11.56;92.88;102535.31;4822555;29;20042;-73
2022/05/06 07:34:50;;;;;;;31.73;16.50;;;;;;;11.58;92.53;102543.97;4822616;29;20031;-74
2022/05/06 07:37:16;;;;;;;26.15;13.85;;;;;;;11.61;92.59;102546.34;4822388;29;20041;-73
2022/05/06 07:39:41;;;;;;;27.95;13.80;;;;;;;11.62;92.83;102550.69;4822241;29;20085;-73
2022/05/06 07:42:08;;;;;;;25.88;13.52;;;;;;;11.61;92.50;102546.34;4822280;29;20090;-73
2022/05/06 07:44:33;;;;;;;25.95;13.70;;;;;;;11.60;91.76;102541.97;4822269;29;20098;-73
2022/05/06 07:46:59;;;;;;;27.33;14.07;;;;;;;11.69;91.39;102553.56;4822199;29;20133;-73
2022/05/06 07:49:25;;;;;;;26.80;14.15;;;;;;;11.68;91.67;102555.38;4822306;29;20119;-73
2022/05/06 07:51:50;;;;;;;23.13;12.82;;;;;;;11.72;92.21;102562.09;4805952;29;20038;-73
2022/05/06 07:54:16;;;;;;;26.30;13.45;;;;;;;11.76;92.21;102554.56;4822210;29;20042;-73
2022/05/06 07:56:41;;;;;;;26.65;13.90;;;;;;;11.76;92.20;102567.94;4805624;29;20062;-73
2022/05/06 07:59:06;;;;;;;29.42;15.43;;;;;;;11.68;92.13;102567.91;4822132;29;20442;-73
2022/05/06 08:04:35;;;;;;;25.48;13.52;;;;;;;11.69;91.81;102564.25;4822256;29;20103;-73
2022/05/06 08:07:01;;;;;;;27.38;13.15;;;;;;;11.69;91.73;102557.06;4822057;29;20111;-72
2022/05/06 08:09:27;;;;;;;28.63;11.52;;;;;;;11.84;91.11;102557.25;4821828;29;20062;-73
2022/05/06 08:11:52;;;;;;;27.65;12.45;;;;;;;11.97;90.96;102565.72;4821746;29;20459;-73
2022/05/06 08:14:19;;;;;;;28.48;14.38;;;;;;;12.02;91.28;102552.66;4821712;29;20251;-73
2022/05/06 08:16:45;;;;;;;27.45;13.82;;;;;;;12.20;90.01;102565.88;4821767;29;20046;-73
2022/05/06 08:19:11;;;;;;;29.38;16.25;;;;;;;12.28;89.47;102565.91;4820960;29;20027;-73
2022/05/06 08:21:36;;;;;;;28.23;15.88;;;;;;;12.35;89.26;102562.56;4821499;29;20034;-74
2022/05/06 08:24:02;;;;;;;27.83;16.92;;;;;;;12.43;89.40;102560.72;4822148;29;20042;-73
2022/05/06 08:26:28;;;;;;;25.88;15.48;;;;;;;12.59;88.73;102562.56;4821457;29;20030;-73
2022/05/06 08:28:53;;;;;;;28.58;15.93;;;;;;;12.58;88.01;102541.34;4821654;29;20038;-73
2022/05/06 08:31:20;;;;;;;33.47;16.90;;;;;;;12.79;87.75;102559.56;4821675;29;20043;-73
2022/05/06 08:33:45;;;;;;;26.55;14.90;;;;;;;13.06;86.52;102563.69;4821270;29;20046;-73
2022/05/06 08:36:10;;;;;;;30.67;17.88;;;;;;;13.39;85.13;102559.13;4821561;29;20095;-73
2022/05/06 08:38:36;;;;;;;26.20;15.95;;;;;;;13.49;83.95;102556.22;4821481;29;20034;-73
2022/05/06 08:41:02;;;;;;;26.35;14.07;;;;;;;13.60;83.97;102555.84;4821515;29;20034;-73
2022/05/06 08:43:27;;;;;;;24.27;13.32;;;;;;;13.81;83.67;102547.19;4821441;29;20033;-73
2022/05/06 08:51:31;;;;;;;29.55;16.23;;;;;;;14.93;80.34;102533.22;4821618;29;20080;-73
2022/05/06 08:53:57;;;;;;;29.23;14.13;;;;;;;15.41;78.03;102539.06;4821434;29;20049;-72
2022/05/06 08:56:23;;;;;;;29.45;14.82;;;;;;;15.54;76.85;102545.44;4820892;29;20182;-73
2022/05/06 08:58:48;;;;;;;28.15;15.38;;;;;;;15.56;77.55;102540.72;4821137;29;20561;-73
2022/05/06 09:01:16;;;;;;;27.75;14.48;;;;;;;15.47;76.61;102536.44;4821321;29;20031;-73
2022/05/06 09:03:43;;;;;;;24.38;13.90;;;;;;;15.61;76.47;102539.28;4821102;29;20055;-73
2022/05/06 09:06:21;;;;;;;27.88;14.07;;;;;;;15.66;78.63;102520.72;4821045;29;20038;-73
2022/05/06 09:08:48;;;;;;;24.95;14.70;;;;;;;15.69;75.67;102542.75;4820986;29;20035;-73
2022/05/06 09:11:16;;;;;;;26.55;14.68;;;;;;;15.76;75.34;102546.34;4821087;29;20053;-73
2022/05/06 09:13:58;;;;;;;26.70;15.30;;;;;;;15.87;75.98;102534.25;4821035;29;20090;-72
2022/05/06 09:16:40;;;;;;;27.58;14.27;;;;;;;15.98;76.47;102532.91;4820778;29;20062;-73
2022/05/06 09:19:25;;;;;;;27.05;13.85;;;;;;;16.00;75.52;102536.25;4821021;29;20094;-73
2022/05/06 09:22:03;;;;;;;26.00;15.20;;;;;;;16.05;75.19;102528.44;4821307;29;20034;-72
2022/05/06 09:24:30;;;;;;;24.95;14.88;;;;;;;16.07;73.42;102526.38;4820774;29;20046;-73
2022/05/06 09:26:57;;;;;;;22.23;12.57;;;;;;;16.06;73.08;102532.81;4820882;29;20039;-73
2022/05/06 09:29:34;;;;;;;24.55;13.73;;;;;;;16.11;74.00;102533.06;4820731;29;20038;-72
2022/05/06 09:32:19;;;;;;;27.92;15.05;;;;;;;16.19;73.99;102532.06;4820435;29;20034;-73
2022/05/06 09:34:47;;;;;;;25.85;15.23;;;;;;;16.20;72.87;102536.44;4820794;29;20037;-72
2022/05/06 09:37:36;;;;;;;26.65;13.93;;;;;;;16.20;73.35;102539.16;4820729;29;20038;-72
2022/05/06 09:40:07;;;;;;;23.38;12.77;;;;;;;16.25;72.25;102525.13;4820776;29;20041;-72
2022/05/06 09:42:34;;;;;;;24.48;13.30;;;;;;;16.30;72.35;102522.69;4820585;29;20058;-73
2022/05/06 09:45:01;;;;;;;27.40;14.38;;;;;;;16.31;72.07;102513.56;4820715;29;20129;-73
2022/05/06 09:47:26;;;;;;;27.35;15.15;;;;;;;16.30;72.72;102515.44;4820627;29;20034;-73
2022/05/06 09:49:52;;;;;;;26.35;16.48;;;;;;;16.34;74.37;102511.31;4820765;29;20145;-73
2022/05/06 09:52:18;;;;;;;24.60;15.93;;;;;;;16.38;72.99;102511.75;4820688;29;20039;-73
2022/05/06 09:54:45;;;;;;;27.00;14.65;;;;;;;16.48;71.36;102517.66;4820353;29;20049;-72
2022/05/06 09:57:12;;;;;;;24.42;14.00;;;;;;;16.60;70.82;102508.00;4820289;29;20058;-72
2022/05/06 09:59:39;;;;;;;24.27;14.15;;;;;;;16.76;70.28;102512.25;4820425;29;20034;-72
2022/05/06 10:02:05;;;;;;;26.80;14.25;;;;;;;16.86;70.26;102510.06;4820455;29;20037;-73
2022/05/06 10:04:31;;;;;;;26.55;13.48;;;;;;;17.00;70.88;102512.84;4820482;29;20525;-73
2022/05/06 10:07:01;;;;;;;23.90;14.18;;;;;;;17.11;69.80;102506.91;4818857;29;20038;-73
2022/05/06 10:09:31;;;;;;;24.00;12.70;;;;;;;17.17;69.56;102507.97;4820279;29;20038;-73
2022/05/06 10:12:01;;;;;;;24.40;12.40;;;;;;;17.29;70.60;102515.28;4820390;29;20038;-73
2022/05/06 10:14:27;;;;;;;23.10;12.40;;;;;;;17.38;70.15;102498.94;4820326;29;20034;-73
2022/05/06 10:16:52;;;;;;;23.40;12.85;;;;;;;17.59;70.17;102498.78;4820298;29;20395;-73
2022/05/06 10:19:44;;;;;;;23.35;12.50;;;;;;;17.70;67.66;102508.97;4820265;29;20070;-72
2022/05/06 10:22:10;;;;;;;23.10;12.30;;;;;;;17.68;67.21;102499.44;4820212;29;20045;-73
2022/05/06 10:24:49;;;;;;;23.27;12.73;;;;;;;17.73;68.46;102495.06;4820073;29;20038;-73
2022/05/06 10:33:18;;;;;;;24.67;13.98;;;;;;;18.12;64.84;102492.69;4820465;29;20046;-73
2022/05/06 10:35:46;;;;;;;22.23;12.65;;;;;;;18.23;67.45;102492.06;4819995;29;20038;-73
2022/05/06 10:38:25;;;;;;;20.67;10.68;;;;;;;18.34;65.99;102493.34;4820104;29;20030;-73
2022/05/06 10:40:57;;;;;;;20.63;11.50;;;;;;;18.35;61.84;102482.31;4820120;29;20038;-72
2022/05/06 10:43:41;;;;;;;20.90;10.23;;;;;;;18.35;64.76;102486.88;4805327;29;20094;-72
2022/05/06 10:46:09;;;;;;;21.65;10.90;;;;;;;18.36;63.16;102481.25;4822949;29;20529;-72
2022/05/06 10:48:35;;;;;;;19.90;9.95;;;;;;;18.44;61.90;102468.56;4822826;29;20083;-73
2022/05/06 10:51:27;;;;;;;21.83;10.40;;;;;;;18.50;63.63;102479.41;4823116;29;20483;-72
2022/05/06 10:53:54;;;;;;;16.80;9.10;;;;;;;18.58;59.40;102476.47;4823151;29;20130;-73
2022/05/06 10:56:19;;;;;;;14.55;7.28;;;;;;;18.62;60.07;102461.47;4823116;29;20045;-73
2022/05/06 10:58:44;;;;;;;16.67;8.50;;;;;;;18.75;59.15;102473.34;4822933;29;20047;-72
2022/05/06 11:01:16;;;;;;;15.60;7.97;;;;;;;18.71;58.58;102469.38;4823001;29;20038;-72
2022/05/06 11:03:54;;;;;;;13.38;6.90;;;;;;;18.69;60.03;102464.19;4807555;29;20516;-72
2022/05/06 11:06:21;;;;;;;15.75;8.05;;;;;;;18.77;58.71;102463.16;4823069;29;20038;-72
2022/05/06 11:08:46;;;;;;;13.05;6.68;;;;;;;18.72;56.88;102460.22;4822849;29;20121;-72
2022/05/06 11:11:19;;;;;;;16.63;7.85;;;;;;;18.79;60.30;102464.59;4822797;29;20145;-73
2022/05/06 11:13:47;;;;;;;18.63;9.27;;;;;;;18.84;57.42;102461.28;4822572;29;20031;-72
2022/05/06 11:16:15;;;;;;;15.52;7.22;;;;;;;18.86;57.31;102466.44;4822320;29;20049;-73
2022/05/06 11:18:42;;;;;;;16.25;7.47;;;;;;;18.93;59.63;102464.56;4822566;29;20336;-73
2022/05/06 11:21:22;;;;;;;25.70;8.77;;;;;;;19.11;60.03;102458.47;4822035;29;20058;-73
2022/05/06 11:23:47;;;;;;;15.68;7.72;;;;;;;19.27;56.77;102458.81;4821340;29;20042;-72
2022/05/06 11:26:23;;;;;;;18.40;7.22;;;;;;;19.27;57.55;102452.56;4822058;29;20034;-73
2022/05/06 11:29:02;;;;;;;19.65;9.50;;;;;;;19.28;57.67;102451.50;4822500;29;20046;-73
2022/05/06 11:31:28;;;;;;;19.58;6.50;;;;;;;19.41;59.20;102445.22;4822452;29;20037;-73
2022/05/06 11:33:58;;;;;;;11.55;6.13;;;;;;;19.50;56.82;102443.91;4806240;29;20038;-73
2022/05/06 11:36:24;;;;;;;29.40;8.85;;;;;;;19.59;57.25;102439.88;4822502;29;20057;-72
2022/05/06 11:38:49;;;;;;;15.50;7.88;;;;;;;19.55;55.43;102448.69;4822338;29;20368;-72
2022/05/06 11:41:17;;;;;;;13.27;6.18;;;;;;;19.55;55.22;102433.28;4822246;29;20046;-73
2022/05/06 11:43:44;;;;;;;13.38;7.20;;;;;;;19.68;57.26;102433.22;4822261;29;20042;-74
2022/05/06 11:49:05;;;;;;;11.73;5.45;;;;;;;19.87;56.39;102436.00;4822262;29;20052;-74
2022/05/06 11:51:38;;;;;;;11.95;6.03;;;;;;;19.82;54.80;102430.41;4805759;29;20149;-74